Ocean Park, Washington
Current Conditions -  °F | °C
As of 4:55 PM on Thursday 27 Nov 2014 (Local Time) from KAST Reporting Station
Light Rain Light Rain  
Wind Chill: 56°   Ceiling: 1000
Heat Index: 56°   Visibility: 6mi
Dew Point: 54°   Wind: 18mph
Humidity: 93%   Direction: 200°SSW
Pressure: 29.82"   Gusts: 26mph
Location:  46.49°N, 124.05°W
Report Text: KAST 280055Z AUTO 20016G23KT 6SM -RA BR BKN010 OVC016 13/12 A2982 RMK AO2 RAB03E21B40 SLP096 P0001 T01330122
Loading
Personal Weather Stations






























Interactive Weather Map New forecast layout! Learn more

10-Day Weather Forecast

Advertisements
Track Severe Weather on mobile